sensor_id;sensor_type;location;lat;lon;timestamp;P1;durP1;ratioP1;P2;durP2;ratioP2
16272;SDS011;8244;50.044;9.006;2022-09-13T00:02:05;10.55;;;7.28;;
16272;SDS011;8244;50.044;9.006;2022-09-13T00:07:07;10.65;;;7.35;;
16272;SDS011;8244;50.044;9.006;2022-09-13T00:12:10;11.93;;;7.28;;
16272;SDS011;8244;50.044;9.006;2022-09-13T00:17:12;12.52;;;7.80;;
16272;SDS011;8244;50.044;9.006;2022-09-13T00:22:13;11.57;;;8.60;;
16272;SDS011;8244;50.044;9.006;2022-09-13T00:27:16;10.85;;;7.47;;
16272;SDS011;8244;50.044;9.006;2022-09-13T00:32:18;10.73;;;7.18;;
16272;SDS011;8244;50.044;9.006;2022-09-13T00:37:20;11.73;;;8.05;;
16272;SDS011;8244;50.044;9.006;2022-09-13T00:42:25;14.68;;;8.07;;
16272;SDS011;8244;50.044;9.006;2022-09-13T00:47:33;13.00;;;7.70;;
16272;SDS011;8244;50.044;9.006;2022-09-13T00:52:39;11.23;;;8.10;;
16272;SDS011;8244;50.044;9.006;2022-09-13T00:57:43;10.80;;;7.75;;
16272;SDS011;8244;50.044;9.006;2022-09-13T01:02:46;11.57;;;7.75;;
16272;SDS011;8244;50.044;9.006;2022-09-13T01:07:51;11.82;;;8.20;;
16272;SDS011;8244;50.044;9.006;2022-09-13T01:12:55;12.90;;;9.10;;
16272;SDS011;8244;50.044;9.006;2022-09-13T01:18:02;13.48;;;9.15;;
16272;SDS011;8244;50.044;9.006;2022-09-13T01:23:11;12.18;;;8.43;;
16272;SDS011;8244;50.044;9.006;2022-09-13T01:28:47;12.10;;;8.20;;
16272;SDS011;8244;50.044;9.006;2022-09-13T01:34:12;10.90;;;7.63;;
16272;SDS011;8244;50.044;9.006;2022-09-13T01:39:25;13.45;;;7.88;;
16272;SDS011;8244;50.044;9.006;2022-09-13T01:44:45;10.57;;;7.18;;
16272;SDS011;8244;50.044;9.006;2022-09-13T01:50:01;10.52;;;7.50;;
16272;SDS011;8244;50.044;9.006;2022-09-13T01:55:12;10.38;;;7.68;;
16272;SDS011;8244;50.044;9.006;2022-09-13T02:00:22;11.32;;;7.80;;
16272;SDS011;8244;50.044;9.006;2022-09-13T02:05:26;11.13;;;7.70;;
16272;SDS011;8244;50.044;9.006;2022-09-13T02:10:34;12.70;;;8.77;;
16272;SDS011;8244;50.044;9.006;2022-09-13T02:15:40;12.68;;;7.03;;
16272;SDS011;8244;50.044;9.006;2022-09-13T02:20:46;13.00;;;9.35;;
16272;SDS011;8244;50.044;9.006;2022-09-13T02:25:50;12.57;;;7.95;;
16272;SDS011;8244;50.044;9.006;2022-09-13T02:30:54;13.23;;;8.05;;
16272;SDS011;8244;50.044;9.006;2022-09-13T02:36:00;13.95;;;8.30;;
16272;SDS011;8244;50.044;9.006;2022-09-13T02:41:06;11.23;;;8.30;;
16272;SDS011;8244;50.044;9.006;2022-09-13T02:46:20;13.18;;;8.38;;
16272;SDS011;8244;50.044;9.006;2022-09-13T02:51:31;11.43;;;8.05;;
16272;SDS011;8244;50.044;9.006;2022-09-13T02:56:41;12.90;;;8.50;;
16272;SDS011;8244;50.044;9.006;2022-09-13T03:01:49;13.93;;;9.32;;
16272;SDS011;8244;50.044;9.006;2022-09-13T03:06:58;15.85;;;9.55;;
16272;SDS011;8244;50.044;9.006;2022-09-13T03:12:14;18.73;;;10.20;;
16272;SDS011;8244;50.044;9.006;2022-09-13T03:17:37;13.23;;;9.60;;
16272;SDS011;8244;50.044;9.006;2022-09-13T03:22:55;13.40;;;9.88;;
16272;SDS011;8244;50.044;9.006;2022-09-13T03:28:08;12.95;;;8.90;;
16272;SDS011;8244;50.044;9.006;2022-09-13T03:33:25;14.18;;;9.93;;
16272;SDS011;8244;50.044;9.006;2022-09-13T03:38:34;12.60;;;9.48;;
16272;SDS011;8244;50.044;9.006;2022-09-13T03:43:40;13.77;;;9.55;;
16272;SDS011;8244;50.044;9.006;2022-09-13T03:48:45;17.45;;;9.93;;
16272;SDS011;8244;50.044;9.006;2022-09-13T03:53:50;15.05;;;9.70;;
16272;SDS011;8244;50.044;9.006;2022-09-13T03:58:55;14.85;;;9.27;;
16272;SDS011;8244;50.044;9.006;2022-09-13T04:03:57;11.68;;;9.07;;
16272;SDS011;8244;50.044;9.006;2022-09-13T04:09:00;12.75;;;8.73;;
16272;SDS011;8244;50.044;9.006;2022-09-13T04:14:01;10.55;;;7.68;;
16272;SDS011;8244;50.044;9.006;2022-09-13T04:19:04;11.85;;;8.27;;
16272;SDS011;8244;50.044;9.006;2022-09-13T04:24:07;11.82;;;7.70;;
16272;SDS011;8244;50.044;9.006;2022-09-13T04:29:09;14.50;;;7.90;;
16272;SDS011;8244;50.044;9.006;2022-09-13T04:34:11;12.25;;;7.90;;
16272;SDS011;8244;50.044;9.006;2022-09-13T04:39:15;13.68;;;8.38;;
16272;SDS011;8244;50.044;9.006;2022-09-13T04:44:16;15.32;;;8.32;;
16272;SDS011;8244;50.044;9.006;2022-09-13T04:49:19;10.95;;;8.00;;
16272;SDS011;8244;50.044;9.006;2022-09-13T04:54:22;13.13;;;8.10;;
16272;SDS011;8244;50.044;9.006;2022-09-13T04:59:24;12.75;;;8.15;;
16272;SDS011;8244;50.044;9.006;2022-09-13T05:04:26;11.85;;;7.65;;
16272;SDS011;8244;50.044;9.006;2022-09-13T05:09:29;12.52;;;7.80;;
16272;SDS011;8244;50.044;9.006;2022-09-13T05:14:31;10.52;;;7.65;;
16272;SDS011;8244;50.044;9.006;2022-09-13T05:19:34;10.52;;;7.13;;
16272;SDS011;8244;50.044;9.006;2022-09-13T05:24:37;10.13;;;7.88;;
16272;SDS011;8244;50.044;9.006;2022-09-13T05:29:38;11.88;;;7.45;;
16272;SDS011;8244;50.044;9.006;2022-09-13T05:34:40;11.82;;;7.70;;
16272;SDS011;8244;50.044;9.006;2022-09-13T05:39:43;14.90;;;7.45;;
16272;SDS011;8244;50.044;9.006;2022-09-13T05:44:45;9.68;;;6.97;;
16272;SDS011;8244;50.044;9.006;2022-09-13T05:49:46;11.15;;;7.10;;
16272;SDS011;8244;50.044;9.006;2022-09-13T05:54:49;9.82;;;7.03;;
16272;SDS011;8244;50.044;9.006;2022-09-13T05:59:51;10.88;;;7.10;;
16272;SDS011;8244;50.044;9.006;2022-09-13T06:04:53;14.63;;;7.32;;
16272;SDS011;8244;50.044;9.006;2022-09-13T06:09:56;12.23;;;7.18;;
16272;SDS011;8244;50.044;9.006;2022-09-13T06:14:58;13.25;;;7.07;;
16272;SDS011;8244;50.044;9.006;2022-09-13T06:20:00;14.50;;;7.70;;
16272;SDS011;8244;50.044;9.006;2022-09-13T06:25:04;12.43;;;7.50;;
16272;SDS011;8244;50.044;9.006;2022-09-13T06:30:07;12.55;;;7.35;;
16272;SDS011;8244;50.044;9.006;2022-09-13T06:35:12;12.70;;;7.47;;
16272;SDS011;8244;50.044;9.006;2022-09-13T06:40:15;15.18;;;8.18;;
16272;SDS011;8244;50.044;9.006;2022-09-13T06:45:17;14.55;;;7.70;;
16272;SDS011;8244;50.044;9.006;2022-09-13T06:50:18;13.38;;;7.55;;
16272;SDS011;8244;50.044;9.006;2022-09-13T06:55:21;14.82;;;8.13;;
16272;SDS011;8244;50.044;9.006;2022-09-13T07:00:24;13.45;;;7.43;;
16272;SDS011;8244;50.044;9.006;2022-09-13T07:05:25;12.13;;;7.65;;
16272;SDS011;8244;50.044;9.006;2022-09-13T07:10:28;11.43;;;6.80;;
16272;SDS011;8244;50.044;9.006;2022-09-13T07:15:30;13.52;;;7.75;;
16272;SDS011;8244;50.044;9.006;2022-09-13T07:20:31;13.82;;;7.57;;
16272;SDS011;8244;50.044;9.006;2022-09-13T07:25:34;9.77;;;7.10;;
16272;SDS011;8244;50.044;9.006;2022-09-13T07:30:36;9.50;;;7.13;;
16272;SDS011;8244;50.044;9.006;2022-09-13T07:35:38;10.70;;;7.53;;
16272;SDS011;8244;50.044;9.006;2022-09-13T07:40:41;11.20;;;7.10;;
16272;SDS011;8244;50.044;9.006;2022-09-13T07:45:42;11.35;;;6.50;;
16272;SDS011;8244;50.044;9.006;2022-09-13T07:50:44;9.48;;;6.60;;
16272;SDS011;8244;50.044;9.006;2022-09-13T07:56:02;10.77;;;6.40;;
16272;SDS011;8244;50.044;9.006;2022-09-13T08:01:05;10.85;;;7.32;;
16272;SDS011;8244;50.044;9.006;2022-09-13T08:06:08;9.02;;;6.40;;
16272;SDS011;8244;50.044;9.006;2022-09-13T08:11:13;12.43;;;6.32;;
16272;SDS011;8244;50.044;9.006;2022-09-13T08:16:18;10.40;;;6.13;;
16272;SDS011;8244;50.044;9.006;2022-09-13T08:21:21;11.68;;;6.47;;
16272;SDS011;8244;50.044;9.006;2022-09-13T08:26:25;12.57;;;6.80;;
16272;SDS011;8244;50.044;9.006;2022-09-13T08:31:27;12.23;;;6.60;;
16272;SDS011;8244;50.044;9.006;2022-09-13T08:36:29;10.48;;;6.20;;
16272;SDS011;8244;50.044;9.006;2022-09-13T08:52:28;10.30;;;6.30;;
16272;SDS011;8244;50.044;9.006;2022-09-13T08:57:36;10.63;;;6.22;;
16272;SDS011;8244;50.044;9.006;2022-09-13T09:02:50;10.32;;;6.60;;
16272;SDS011;8244;50.044;9.006;2022-09-13T09:08:02;8.70;;;5.63;;
16272;SDS011;8244;50.044;9.006;2022-09-13T09:13:14;8.27;;;6.05;;
16272;SDS011;8244;50.044;9.006;2022-09-13T09:18:22;11.18;;;5.90;;
16272;SDS011;8244;50.044;9.006;2022-09-13T09:23:26;10.48;;;5.88;;
16272;SDS011;8244;50.044;9.006;2022-09-13T09:28:33;11.90;;;5.68;;
16272;SDS011;8244;50.044;9.006;2022-09-13T09:33:38;11.95;;;5.70;;
16272;SDS011;8244;50.044;9.006;2022-09-13T09:38:51;14.95;;;6.15;;
16272;SDS011;8244;50.044;9.006;2022-09-13T09:43:57;14.38;;;5.80;;
16272;SDS011;8244;50.044;9.006;2022-09-13T09:49:04;11.60;;;5.65;;
16272;SDS011;8244;50.044;9.006;2022-09-13T09:54:33;10.07;;;5.00;;
16272;SDS011;8244;50.044;9.006;2022-09-13T09:59:36;7.78;;;5.88;;
16272;SDS011;8244;50.044;9.006;2022-09-13T10:04:38;9.57;;;5.38;;
16272;SDS011;8244;50.044;9.006;2022-09-13T10:09:40;10.18;;;6.13;;
16272;SDS011;8244;50.044;9.006;2022-09-13T10:15:03;8.90;;;5.40;;
16272;SDS011;8244;50.044;9.006;2022-09-13T10:20:20;9.18;;;5.47;;
16272;SDS011;8244;50.044;9.006;2022-09-13T10:25:26;12.60;;;6.13;;
16272;SDS011;8244;50.044;9.006;2022-09-13T10:30:31;9.43;;;5.63;;
16272;SDS011;8244;50.044;9.006;2022-09-13T10:35:37;7.82;;;5.55;;
16272;SDS011;8244;50.044;9.006;2022-09-13T10:40:38;10.73;;;5.63;;
16272;SDS011;8244;50.044;9.006;2022-09-13T10:45:42;9.18;;;5.82;;
16272;SDS011;8244;50.044;9.006;2022-09-13T10:50:58;11.35;;;5.60;;
16272;SDS011;8244;50.044;9.006;2022-09-13T10:56:02;8.63;;;5.15;;
16272;SDS011;8244;50.044;9.006;2022-09-13T11:01:12;11.60;;;5.80;;
16272;SDS011;8244;50.044;9.006;2022-09-13T11:06:25;9.57;;;6.00;;
16272;SDS011;8244;50.044;9.006;2022-09-13T11:11:32;8.35;;;5.50;;
16272;SDS011;8244;50.044;9.006;2022-09-13T11:16:45;7.47;;;5.40;;
16272;SDS011;8244;50.044;9.006;2022-09-13T11:22:05;7.63;;;4.80;;
16272;SDS011;8244;50.044;9.006;2022-09-13T11:27:38;8.00;;;5.03;;
16272;SDS011;8244;50.044;9.006;2022-09-13T11:33:01;5.75;;;4.38;;
16272;SDS011;8244;50.044;9.006;2022-09-13T11:38:25;7.47;;;4.50;;
16272;SDS011;8244;50.044;9.006;2022-09-13T11:43:38;6.22;;;4.20;;
16272;SDS011;8244;50.044;9.006;2022-09-13T11:49:01;5.63;;;4.20;;
16272;SDS011;8244;50.044;9.006;2022-09-13T11:54:21;5.75;;;4.00;;
16272;SDS011;8244;50.044;9.006;2022-09-13T11:59:36;8.43;;;5.03;;
16272;SDS011;8244;50.044;9.006;2022-09-13T12:04:44;6.90;;;4.55;;
16272;SDS011;8244;50.044;9.006;2022-09-13T12:09:53;8.98;;;5.10;;
16272;SDS011;8244;50.044;9.006;2022-09-13T12:14:59;6.88;;;4.30;;
16272;SDS011;8244;50.044;9.006;2022-09-13T12:20:11;9.20;;;4.50;;
16272;SDS011;8244;50.044;9.006;2022-09-13T12:25:19;8.38;;;4.35;;
16272;SDS011;8244;50.044;9.006;2022-09-13T12:30:24;7.22;;;3.83;;
16272;SDS011;8244;50.044;9.006;2022-09-13T12:35:36;7.15;;;4.30;;
16272;SDS011;8244;50.044;9.006;2022-09-13T12:46:50;6.65;;;4.55;;
16272;SDS011;8244;50.044;9.006;2022-09-13T12:52:19;4.90;;;3.88;;
16272;SDS011;8244;50.044;9.006;2022-09-13T12:57:30;7.47;;;3.63;;
16272;SDS011;8244;50.044;9.006;2022-09-13T13:02:39;9.80;;;4.20;;
16272;SDS011;8244;50.044;9.006;2022-09-13T13:07:48;8.35;;;4.13;;
16272;SDS011;8244;50.044;9.006;2022-09-13T13:12:52;4.97;;;3.70;;
16272;SDS011;8244;50.044;9.006;2022-09-13T13:17:54;5.80;;;3.78;;
16272;SDS011;8244;50.044;9.006;2022-09-13T13:23:03;4.35;;;3.90;;
16272;SDS011;8244;50.044;9.006;2022-09-13T13:33:53;7.28;;;3.70;;
16272;SDS011;8244;50.044;9.006;2022-09-13T13:38:59;7.13;;;4.15;;
16272;SDS011;8244;50.044;9.006;2022-09-13T13:44:50;3.80;;;3.40;;
16272;SDS011;8244;50.044;9.006;2022-09-13T13:49:53;7.95;;;4.20;;
16272;SDS011;8244;50.044;9.006;2022-09-13T13:55:27;7.45;;;4.00;;
16272;SDS011;8244;50.044;9.006;2022-09-13T14:00:44;5.03;;;3.80;;
16272;SDS011;8244;50.044;9.006;2022-09-13T14:05:52;7.50;;;3.90;;
16272;SDS011;8244;50.044;9.006;2022-09-13T14:11:02;5.80;;;3.35;;
16272;SDS011;8244;50.044;9.006;2022-09-13T14:16:18;6.40;;;3.70;;
16272;SDS011;8244;50.044;9.006;2022-09-13T14:21:30;7.20;;;3.38;;
16272;SDS011;8244;50.044;9.006;2022-09-13T14:26:31;8.27;;;3.53;;
16272;SDS011;8244;50.044;9.006;2022-09-13T14:31:33;5.97;;;3.53;;
16272;SDS011;8244;50.044;9.006;2022-09-13T14:36:38;6.90;;;3.60;;
16272;SDS011;8244;50.044;9.006;2022-09-13T14:41:59;6.10;;;3.55;;
16272;SDS011;8244;50.044;9.006;2022-09-13T14:47:04;4.20;;;3.03;;
16272;SDS011;8244;50.044;9.006;2022-09-13T14:52:15;5.18;;;3.47;;
16272;SDS011;8244;50.044;9.006;2022-09-13T14:57:25;4.93;;;3.28;;
16272;SDS011;8244;50.044;9.006;2022-09-13T15:02:34;6.97;;;3.50;;
16272;SDS011;8244;50.044;9.006;2022-09-13T15:07:39;9.25;;;3.63;;
16272;SDS011;8244;50.044;9.006;2022-09-13T15:12:48;5.35;;;3.72;;
16272;SDS011;8244;50.044;9.006;2022-09-13T15:17:52;4.78;;;3.75;;
16272;SDS011;8244;50.044;9.006;2022-09-13T15:22:56;5.88;;;3.90;;
16272;SDS011;8244;50.044;9.006;2022-09-13T15:27:58;7.32;;;4.10;;
16272;SDS011;8244;50.044;9.006;2022-09-13T15:33:21;6.50;;;3.85;;
16272;SDS011;8244;50.044;9.006;2022-09-13T15:38:26;6.18;;;4.07;;
16272;SDS011;8244;50.044;9.006;2022-09-13T15:43:30;6.80;;;3.90;;
16272;SDS011;8244;50.044;9.006;2022-09-13T15:48:33;5.00;;;3.88;;
16272;SDS011;8244;50.044;9.006;2022-09-13T15:53:37;7.82;;;4.30;;
16272;SDS011;8244;50.044;9.006;2022-09-13T15:58:40;5.60;;;4.10;;
16272;SDS011;8244;50.044;9.006;2022-09-13T16:03:42;6.32;;;4.28;;
16272;SDS011;8244;50.044;9.006;2022-09-13T16:08:45;8.45;;;4.57;;
16272;SDS011;8244;50.044;9.006;2022-09-13T16:13:47;5.65;;;4.28;;
16272;SDS011;8244;50.044;9.006;2022-09-13T16:18:48;6.00;;;4.40;;
16272;SDS011;8244;50.044;9.006;2022-09-13T16:23:51;7.82;;;4.20;;
16272;SDS011;8244;50.044;9.006;2022-09-13T16:28:53;5.07;;;4.00;;
16272;SDS011;8244;50.044;9.006;2022-09-13T16:33:55;5.75;;;4.00;;
16272;SDS011;8244;50.044;9.006;2022-09-13T16:38:58;7.38;;;4.72;;
16272;SDS011;8244;50.044;9.006;2022-09-13T16:44:00;6.53;;;4.88;;
16272;SDS011;8244;50.044;9.006;2022-09-13T16:49:04;8.82;;;6.53;;
16272;SDS011;8244;50.044;9.006;2022-09-13T16:54:07;6.38;;;4.63;;
16272;SDS011;8244;50.044;9.006;2022-09-13T16:59:08;8.32;;;5.60;;
16272;SDS011;8244;50.044;9.006;2022-09-13T17:04:10;7.97;;;4.65;;
16272;SDS011;8244;50.044;9.006;2022-09-13T17:09:13;8.50;;;5.07;;
16272;SDS011;8244;50.044;9.006;2022-09-13T17:14:15;6.97;;;5.13;;
16272;SDS011;8244;50.044;9.006;2022-09-13T17:19:18;8.45;;;5.35;;
16272;SDS011;8244;50.044;9.006;2022-09-13T17:24:23;10.77;;;6.95;;
16272;SDS011;8244;50.044;9.006;2022-09-13T17:29:26;9.50;;;5.80;;
16272;SDS011;8244;50.044;9.006;2022-09-13T17:34:29;10.57;;;4.95;;
16272;SDS011;8244;50.044;9.006;2022-09-13T17:39:34;7.80;;;5.68;;
16272;SDS011;8244;50.044;9.006;2022-09-13T17:44:36;7.80;;;5.53;;
16272;SDS011;8244;50.044;9.006;2022-09-13T17:49:38;9.38;;;6.63;;
16272;SDS011;8244;50.044;9.006;2022-09-13T17:54:41;9.25;;;6.22;;
16272;SDS011;8244;50.044;9.006;2022-09-13T17:59:45;9.77;;;6.15;;
16272;SDS011;8244;50.044;9.006;2022-09-13T18:04:48;10.38;;;6.85;;
16272;SDS011;8244;50.044;9.006;2022-09-13T18:09:52;6.80;;;5.20;;
16272;SDS011;8244;50.044;9.006;2022-09-13T18:14:53;10.18;;;6.47;;
16272;SDS011;8244;50.044;9.006;2022-09-13T18:19:56;10.10;;;6.00;;
16272;SDS011;8244;50.044;9.006;2022-09-13T18:24:59;11.30;;;6.13;;
16272;SDS011;8244;50.044;9.006;2022-09-13T18:30:01;10.80;;;6.07;;
16272;SDS011;8244;50.044;9.006;2022-09-13T18:35:06;8.27;;;6.03;;
16272;SDS011;8244;50.044;9.006;2022-09-13T18:40:09;8.60;;;5.93;;
16272;SDS011;8244;50.044;9.006;2022-09-13T18:45:13;7.72;;;6.07;;
16272;SDS011;8244;50.044;9.006;2022-09-13T18:50:14;8.20;;;6.18;;
16272;SDS011;8244;50.044;9.006;2022-09-13T18:55:17;10.95;;;7.10;;
16272;SDS011;8244;50.044;9.006;2022-09-13T19:00:19;7.32;;;5.28;;
16272;SDS011;8244;50.044;9.006;2022-09-13T19:05:23;8.30;;;5.50;;
16272;SDS011;8244;50.044;9.006;2022-09-13T19:10:26;8.38;;;5.32;;
16272;SDS011;8244;50.044;9.006;2022-09-13T19:15:31;9.07;;;4.78;;
16272;SDS011;8244;50.044;9.006;2022-09-13T19:20:33;6.72;;;4.50;;
16272;SDS011;8244;50.044;9.006;2022-09-13T19:25:36;6.65;;;4.53;;
16272;SDS011;8244;50.044;9.006;2022-09-13T19:30:38;7.97;;;5.25;;
16272;SDS011;8244;50.044;9.006;2022-09-13T19:35:40;8.55;;;5.38;;
16272;SDS011;8244;50.044;9.006;2022-09-13T19:40:43;8.05;;;5.80;;
16272;SDS011;8244;50.044;9.006;2022-09-13T19:45:56;8.15;;;5.90;;
16272;SDS011;8244;50.044;9.006;2022-09-13T19:51:00;9.40;;;5.20;;
16272;SDS011;8244;50.044;9.006;2022-09-13T19:56:06;8.48;;;5.00;;
16272;SDS011;8244;50.044;9.006;2022-09-13T20:01:09;6.97;;;5.40;;
16272;SDS011;8244;50.044;9.006;2022-09-13T20:06:14;6.68;;;4.72;;
16272;SDS011;8244;50.044;9.006;2022-09-13T20:11:17;9.40;;;6.25;;
16272;SDS011;8244;50.044;9.006;2022-09-13T20:16:20;9.75;;;6.82;;
16272;SDS011;8244;50.044;9.006;2022-09-13T20:21:24;9.00;;;6.43;;
16272;SDS011;8244;50.044;9.006;2022-09-13T20:26:28;10.68;;;6.30;;
16272;SDS011;8244;50.044;9.006;2022-09-13T20:31:32;8.70;;;5.90;;
16272;SDS011;8244;50.044;9.006;2022-09-13T20:36:35;8.18;;;6.25;;
16272;SDS011;8244;50.044;9.006;2022-09-13T20:41:39;9.82;;;6.70;;
16272;SDS011;8244;50.044;9.006;2022-09-13T20:46:42;8.43;;;5.85;;
16272;SDS011;8244;50.044;9.006;2022-09-13T20:51:43;7.93;;;6.40;;
16272;SDS011;8244;50.044;9.006;2022-09-13T20:56:47;7.45;;;5.95;;
16272;SDS011;8244;50.044;9.006;2022-09-13T21:01:49;9.07;;;6.40;;
16272;SDS011;8244;50.044;9.006;2022-09-13T21:06:50;9.23;;;7.07;;
16272;SDS011;8244;50.044;9.006;2022-09-13T21:12:11;12.25;;;8.52;;
16272;SDS011;8244;50.044;9.006;2022-09-13T21:17:13;14.00;;;8.02;;
16272;SDS011;8244;50.044;9.006;2022-09-13T21:22:15;12.32;;;7.55;;
16272;SDS011;8244;50.044;9.006;2022-09-13T21:27:18;13.80;;;7.95;;
16272;SDS011;8244;50.044;9.006;2022-09-13T21:32:19;9.30;;;6.05;;
16272;SDS011;8244;50.044;9.006;2022-09-13T21:37:21;9.43;;;6.10;;
16272;SDS011;8244;50.044;9.006;2022-09-13T21:42:24;11.57;;;6.13;;
16272;SDS011;8244;50.044;9.006;2022-09-13T21:47:26;10.05;;;6.43;;
16272;SDS011;8244;50.044;9.006;2022-09-13T21:52:28;9.10;;;5.50;;
16272;SDS011;8244;50.044;9.006;2022-09-13T21:57:31;7.43;;;4.82;;
16272;SDS011;8244;50.044;9.006;2022-09-13T22:02:33;7.50;;;5.32;;
16272;SDS011;8244;50.044;9.006;2022-09-13T22:07:34;9.48;;;6.20;;
16272;SDS011;8244;50.044;9.006;2022-09-13T22:12:37;7.80;;;4.97;;
16272;SDS011;8244;50.044;9.006;2022-09-13T22:17:39;7.93;;;5.30;;
16272;SDS011;8244;50.044;9.006;2022-09-13T22:22:41;6.47;;;4.63;;
16272;SDS011;8244;50.044;9.006;2022-09-13T22:27:44;6.18;;;4.63;;
16272;SDS011;8244;50.044;9.006;2022-09-13T22:32:46;7.00;;;5.03;;
16272;SDS011;8244;50.044;9.006;2022-09-13T22:37:47;6.40;;;4.63;;
16272;SDS011;8244;50.044;9.006;2022-09-13T22:42:50;7.55;;;4.70;;
16272;SDS011;8244;50.044;9.006;2022-09-13T22:47:52;9.93;;;5.00;;
16272;SDS011;8244;50.044;9.006;2022-09-13T22:52:53;7.53;;;4.75;;
16272;SDS011;8244;50.044;9.006;2022-09-13T22:57:56;6.28;;;4.20;;
16272;SDS011;8244;50.044;9.006;2022-09-13T23:02:58;5.75;;;4.20;;
16272;SDS011;8244;50.044;9.006;2022-09-13T23:08:00;5.85;;;4.00;;
16272;SDS011;8244;50.044;9.006;2022-09-13T23:13:03;7.00;;;4.00;;
16272;SDS011;8244;50.044;9.006;2022-09-13T23:18:05;8.05;;;4.13;;
16272;SDS011;8244;50.044;9.006;2022-09-13T23:23:08;6.97;;;4.63;;
16272;SDS011;8244;50.044;9.006;2022-09-13T23:28:12;6.60;;;4.85;;
16272;SDS011;8244;50.044;9.006;2022-09-13T23:33:14;5.82;;;4.20;;
16272;SDS011;8244;50.044;9.006;2022-09-13T23:38:16;7.95;;;4.32;;
16272;SDS011;8244;50.044;9.006;2022-09-13T23:43:19;8.27;;;4.60;;
16272;SDS011;8244;50.044;9.006;2022-09-13T23:48:21;7.10;;;4.30;;
16272;SDS011;8244;50.044;9.006;2022-09-13T23:53:23;6.60;;;4.70;;
16272;SDS011;8244;50.044;9.006;2022-09-13T23:58:26;7.30;;;4.50;;
